Time;durP1;ratioP1;P1;durP2;ratioP2;P2;SDS_P1;SDS_P2;PMS_P1;PMS_P2;Temp;Humidity;BMP_temperature;BMP_pressure;BME280_temperature;BME280_humidity;BME280_pressure;Samples;Min_cycle;Max_cycle;Signal;HPM_P1;HPM_P2
2021/08/11 00:01:16;;;;;;;21.55;12.15;;;;;;;21.98;69.96;99201.75;4939110;29;20058;-77
2021/08/11 00:03:42;;;;;;;26.90;12.70;;;;;;;21.95;69.67;99205.25;4939425;29;20047;-76
2021/08/11 00:06:08;;;;;;;25.20;12.07;;;;;;;21.92;69.98;99200.41;4961871;28;20046;-76
2021/08/11 00:08:34;;;;;;;22.52;11.60;;;;;;;21.79;70.28;99200.56;4938241;28;20525;-76
2021/08/11 00:11:00;;;;;;;25.95;12.23;;;;;;;21.86;70.11;99208.25;4928804;29;20055;-76
2021/08/11 00:13:26;;;;;;;25.02;11.68;;;;;;;21.88;70.31;99205.09;4945275;29;20098;-77
2021/08/11 00:15:53;;;;;;;24.27;11.90;;;;;;;21.92;69.82;99212.34;4947211;28;20067;-77
2021/08/11 00:18:19;;;;;;;24.27;11.80;;;;;;;21.91;69.93;99210.75;4942776;29;20047;-76
2021/08/11 00:20:45;;;;;;;20.92;11.75;;;;;;;21.83;70.21;99208.19;4933670;29;20056;-77
2021/08/11 00:23:11;;;;;;;21.60;11.45;;;;;;;21.74;70.55;99208.41;4933612;29;20050;-77
2021/08/11 00:25:37;;;;;;;22.33;11.38;;;;;;;21.76;70.58;99211.63;4944295;29;20134;-76
2021/08/11 00:28:04;;;;;;;24.75;12.65;;;;;;;21.75;70.64;99212.78;4944756;28;20134;-76
2021/08/11 00:30:31;;;;;;;23.70;11.43;;;;;;;21.85;70.20;99214.19;4952343;28;20078;-77
2021/08/11 00:32:59;;;;;;;24.05;12.20;;;;;;;21.84;70.10;99207.00;4943970;29;20039;-77
2021/08/11 00:35:26;;;;;;;27.13;11.93;;;;;;;21.87;70.10;99209.06;4942265;29;20062;-74
2021/08/11 00:37:52;;;;;;;25.63;11.85;;;;;;;21.90;70.19;99216.66;4925893;29;20052;-74
2021/08/11 00:40:22;;;;;;;26.73;12.85;;;;;;;21.94;70.06;99212.78;4945088;29;20051;-74
2021/08/11 00:42:49;;;;;;;23.40;11.38;;;;;;;21.93;70.08;99213.97;4949683;29;20047;-75
2021/08/11 00:45:15;;;;;;;28.88;12.35;;;;;;;21.91;69.97;99216.31;4924046;29;20065;-74
2021/08/11 00:47:46;;;;;;;29.65;12.80;;;;;;;21.91;70.25;99218.28;4939737;29;20079;-75
2021/08/11 00:50:13;;;;;;;25.00;13.00;;;;;;;21.77;70.86;99214.00;4934452;29;20048;-74
2021/08/11 00:52:39;;;;;;;30.92;12.52;;;;;;;21.77;70.55;99210.44;4922045;29;20051;-75
2021/08/11 00:55:11;;;;;;;29.38;13.35;;;;;;;21.67;70.92;99201.50;4940563;29;20055;-74
2021/08/11 00:57:38;;;;;;;30.88;12.75;;;;;;;21.70;70.89;99204.72;4926209;29;20078;-74
2021/08/11 01:00:06;;;;;;;22.02;12.50;;;;;;;21.56;71.41;99191.28;4940248;29;20051;-75
2021/08/11 01:02:33;;;;;;;24.67;13.00;;;;;;;21.45;71.76;99194.63;4941729;29;20564;-74
2021/08/11 01:05:02;;;;;;;26.20;12.48;;;;;;;21.43;71.61;99188.63;4936228;29;20050;-74
2021/08/11 01:07:32;;;;;;;27.20;12.80;;;;;;;21.39;71.56;99183.00;4944950;29;20055;-74
2021/08/11 01:10:01;;;;;;;31.45;11.52;;;;;;;21.45;71.32;99185.50;4940315;29;20047;-74
2021/08/11 01:12:28;;;;;;;31.30;11.55;;;;;;;21.51;71.04;99182.06;4940042;29;20047;-74
2021/08/11 01:14:55;;;;;;;22.10;12.05;;;;;;;21.57;70.88;99179.81;4939918;29;20143;-74
2021/08/11 01:17:22;;;;;;;23.55;12.27;;;;;;;21.61;70.92;99186.25;4939546;29;20413;-74
2021/08/11 01:19:49;;;;;;;23.75;12.25;;;;;;;21.68;70.58;99188.41;4935492;29;20054;-74
2021/08/11 01:22:23;;;;;;;27.40;12.32;;;;;;;21.73;70.37;99196.44;4938185;29;20516;-74
2021/08/11 01:25:02;;;;;;;27.33;12.65;;;;;;;21.79;70.20;99191.41;4940285;29;20106;-74
2021/08/11 01:28:06;;;;;;;23.60;12.38;;;;;;;21.79;70.25;99188.63;4939635;29;20150;-74
2021/08/11 01:30:41;;;;;;;22.38;12.07;;;;;;;21.75;70.64;99182.19;4944338;29;20512;-74
2021/08/11 01:33:45;;;;;;;22.80;13.07;;;;;;;21.75;70.83;99179.41;4945788;28;20047;-74
2021/08/11 01:36:18;;;;;;;26.83;13.02;;;;;;;21.69;70.85;99187.22;4923533;28;20063;-73
2021/08/11 01:38:50;;;;;;;21.55;12.52;;;;;;;21.76;70.57;99186.56;4938829;29;20044;-75
2021/08/11 01:41:24;;;;;;;30.48;12.35;;;;;;;21.78;70.53;99175.88;4953623;28;20050;-75
2021/08/11 01:43:52;;;;;;;25.98;13.80;;;;;;;21.83;70.68;99178.38;4953592;28;20047;-75
2021/08/11 01:46:18;;;;;;;28.10;13.52;;;;;;;21.83;70.71;99180.34;4956099;28;20137;-75
2021/08/11 01:48:50;;;;;;;32.58;13.45;;;;;;;21.81;70.70;99180.72;4918935;29;20055;-75
2021/08/11 01:51:18;;;;;;;24.67;12.95;;;;;;;21.81;70.74;99180.72;4944734;28;20146;-74
2021/08/11 01:53:44;;;;;;;31.05;13.63;;;;;;;21.79;70.59;99181.09;4927825;29;20047;-74
2021/08/11 01:56:14;;;;;;;41.28;16.38;;;;;;;21.75;70.63;99182.97;4940381;29;20051;-75
2021/08/11 01:58:46;;;;;;;59.88;18.88;;;;;;;21.71;70.83;99170.97;4951053;28;20051;-74
2021/08/11 02:01:13;;;;;;;50.58;19.10;;;;;;;21.72;70.95;99197.63;4926053;29;20456;-74
2021/08/11 02:03:44;;;;;;;92.30;20.98;;;;;;;21.69;71.19;99181.66;4944935;28;20052;-74
2021/08/11 02:06:13;;;;;;;63.78;16.75;;;;;;;21.61;71.26;99183.47;4926260;29;20575;-74
2021/08/11 02:08:44;;;;;;;39.83;14.95;;;;;;;21.53;71.30;99187.25;4935931;29;20135;-74
2021/08/11 02:11:14;;;;;;;32.38;14.75;;;;;;;21.59;71.19;99182.22;4919736;29;20440;-74
2021/08/11 02:13:41;;;;;;;33.17;12.73;;;;;;;21.53;71.13;99181.69;4921931;29;20305;-74
2021/08/11 02:16:11;;;;;;;30.15;12.82;;;;;;;21.41;71.20;99179.84;4942141;29;20509;-74
2021/08/11 02:18:37;;;;;;;25.52;13.10;;;;;;;21.48;71.17;99182.81;4944196;29;20103;-74
2021/08/11 02:21:03;;;;;;;28.38;13.13;;;;;;;21.54;71.13;99191.63;4942171;29;20146;-74
2021/08/11 02:23:31;;;;;;;27.08;13.63;;;;;;;21.57;71.23;99182.59;4939831;28;20127;-74
2021/08/11 02:26:08;;;;;;;27.25;13.68;;;;;;;21.68;70.80;99189.19;4929889;29;20526;-74
2021/08/11 02:28:46;;;;;;;26.55;13.65;;;;;;;21.70;70.67;99191.63;4944438;29;20051;-74
2021/08/11 02:31:20;;;;;;;31.08;13.35;;;;;;;21.74;70.87;99202.84;4935177;29;20106;-74
2021/08/11 02:33:50;;;;;;;30.27;13.40;;;;;;;21.72;70.57;99205.19;4937867;29;20064;-74
2021/08/11 02:36:27;;;;;;;24.63;13.35;;;;;;;21.60;71.28;99206.88;4939884;29;20142;-74
2021/08/11 02:38:58;;;;;;;;;;;;;;;21.49;71.60;99211.41;4928820;29;20095;-74
2021/08/11 02:41:32;;;;;;;28.52;12.95;;;;;;;21.48;71.40;99207.81;4955545;28;20443;-74
2021/08/11 02:44:02;;;;;;;26.15;13.50;;;;;;;21.62;71.15;99212.06;4921452;29;20394;-74
2021/08/11 02:46:30;;;;;;;25.95;13.50;;;;;;;21.73;70.71;99215.13;4937879;29;20044;-74
2021/08/11 02:49:01;;;;;;;24.15;13.43;;;;;;;21.76;70.38;99217.97;4933237;29;20043;-74
2021/08/11 02:51:33;;;;;;;24.98;13.20;;;;;;;21.74;70.75;99217.53;4918461;29;20063;-74
2021/08/11 02:54:06;;;;;;;30.20;13.93;;;;;;;21.77;70.84;99218.78;4938687;29;20047;-74
2021/08/11 02:56:33;;;;;;;36.58;14.05;;;;;;;21.79;70.72;99227.56;4946592;29;20105;-74
2021/08/11 02:59:02;;;;;;;36.97;15.63;;;;;;;21.81;70.58;99239.97;4933581;29;20044;-74
2021/08/11 03:01:29;;;;;;;32.90;14.65;;;;;;;21.83;70.43;99230.44;4963192;28;20577;-74
2021/08/11 03:03:59;;;;;;;28.77;12.27;;;;;;;21.76;70.58;99231.09;4941308;29;20059;-74
2021/08/11 03:06:26;;;;;;;33.70;13.10;;;;;;;21.77;70.76;99227.91;4928126;29;20484;-74
2021/08/11 03:08:55;;;;;;;30.10;12.90;;;;;;;21.81;70.30;99230.78;4937075;29;20051;-74
2021/08/11 03:11:23;;;;;;;36.13;13.73;;;;;;;21.87;70.28;99243.25;4959557;28;20054;-74
2021/08/11 03:13:52;;;;;;;32.25;16.65;;;;;;;21.89;70.44;99234.53;4959328;28;20082;-74
2021/08/11 03:16:18;;;;;;;41.75;14.82;;;;;;;21.93;70.18;99235.41;4928584;29;20048;-74
2021/08/11 03:18:44;;;;;;;32.33;15.80;;;;;;;21.99;70.09;99236.75;4938297;29;20043;-74
2021/08/11 03:21:11;;;;;;;36.97;15.73;;;;;;;21.96;69.86;99243.84;4935712;29;20047;-74
2021/08/11 03:23:37;;;;;;;32.40;15.03;;;;;;;22.02;69.73;99240.78;4937220;29;20040;-74
2021/08/11 03:26:03;;;;;;;32.10;14.93;;;;;;;22.04;69.50;99253.13;4949621;29;20736;-74
2021/08/11 03:28:31;;;;;;;27.87;14.30;;;;;;;22.05;69.61;99263.09;4946159;28;20050;-75
2021/08/11 03:30:57;;;;;;;34.65;13.18;;;;;;;22.06;69.31;99255.56;4941384;29;20051;-75
2021/08/11 03:33:24;;;;;;;33.63;12.57;;;;;;;22.08;69.21;99256.78;4939551;29;20044;-74
2021/08/11 03:35:51;;;;;;;31.35;12.23;;;;;;;22.10;69.24;99264.78;4933037;29;20079;-74
2021/08/11 03:38:18;;;;;;;26.92;12.38;;;;;;;22.13;69.23;99271.59;4943778;29;20063;-74
2021/08/11 03:40:44;;;;;;;26.73;12.18;;;;;;;22.14;69.43;99271.22;4922293;29;20040;-75
2021/08/11 03:43:10;;;;;;;29.63;12.13;;;;;;;22.17;69.35;99275.25;4946002;29;20076;-74
2021/08/11 03:45:38;;;;;;;30.65;12.68;;;;;;;22.18;69.34;99274.91;4949594;29;20057;-75
2021/08/11 03:48:05;;;;;;;33.80;12.70;;;;;;;22.15;69.47;99281.19;4946058;28;20047;-74
2021/08/11 03:50:31;;;;;;;36.75;14.57;;;;;;;22.16;69.49;99277.22;4944748;29;20099;-75
2021/08/11 03:52:58;;;;;;;41.95;14.73;;;;;;;22.17;69.30;99283.63;4955365;28;20039;-74
2021/08/11 03:55:32;;;;;;;49.88;15.43;;;;;;;22.16;69.32;99288.34;4945017;29;20059;-74
2021/08/11 03:58:00;;;;;;;45.75;16.00;;;;;;;22.13;69.20;99300.22;4938448;29;20056;-74
2021/08/11 04:00:27;;;;;;;54.53;16.38;;;;;;;22.12;69.39;99290.28;4944339;29;20130;-75
2021/08/11 04:02:54;;;;;;;45.85;16.65;;;;;;;22.11;69.30;99294.22;4944820;29;20056;-74
2021/08/11 04:05:21;;;;;;;43.55;16.15;;;;;;;22.14;69.17;99293.50;4942687;28;20130;-74
2021/08/11 04:07:49;;;;;;;55.28;17.73;;;;;;;22.10;69.46;99309.31;4956151;28;20044;-74
2021/08/11 04:10:15;;;;;;;53.47;16.77;;;;;;;22.09;69.37;99307.72;4942022;29;20047;-75
2021/08/11 04:12:41;;;;;;;51.08;15.65;;;;;;;22.12;69.83;99304.19;4951334;29;20558;-75
2021/08/11 04:15:07;;;;;;;54.85;16.40;;;;;;;22.11;69.56;99310.94;4930754;29;20048;-75
2021/08/11 04:17:33;;;;;;;;;;;;;;;22.15;69.63;99308.22;4940477;29;20126;-75
2021/08/11 04:20:01;;;;;;;51.27;15.80;;;;;;;22.10;69.33;99304.56;4946091;28;20017;-74
2021/08/11 04:22:27;;;;;;;58.50;17.70;;;;;;;22.09;69.59;99307.72;4934581;29;20416;-74
2021/08/11 04:24:52;;;;;;;47.00;15.07;;;;;;;22.08;69.82;99306.88;4935987;29;20078;-75
2021/08/11 04:27:19;;;;;;;56.45;16.15;;;;;;;22.09;69.24;99304.94;4952703;29;20070;-75
2021/08/11 04:29:45;;;;;;;63.53;16.67;;;;;;;22.13;68.47;99303.00;4945412;28;20051;-74
2021/08/11 04:32:11;;;;;;;61.42;16.13;;;;;;;22.10;68.41;99310.13;4938301;29;20111;-75
2021/08/11 04:34:36;;;;;;;52.15;15.32;;;;;;;22.10;68.29;99306.53;4941012;28;20500;-73
2021/08/11 04:37:06;;;;;;;60.40;15.80;;;;;;;22.05;68.59;99306.84;4936542;29;20459;-73
2021/08/11 04:39:32;;;;;;;52.97;15.95;;;;;;;22.02;68.71;99302.78;4953870;29;20047;-80
2021/08/11 04:41:58;;;;;;;60.42;14.68;;;;;;;22.04;68.76;99305.22;4953430;29;20106;-74
2021/08/11 04:44:24;;;;;;;56.05;14.95;;;;;;;22.08;68.72;99297.75;4953399;28;20515;-74
2021/08/11 04:46:50;;;;;;;56.53;15.87;;;;;;;22.08;68.34;99294.97;4948010;29;20043;-74
2021/08/11 04:49:16;;;;;;;69.38;15.60;;;;;;;22.15;67.78;99289.53;4944594;29;20044;-74
2021/08/11 04:51:42;;;;;;;53.05;14.55;;;;;;;22.18;67.68;99291.59;4954923;28;20043;-75
2021/08/11 04:54:10;;;;;;;62.67;15.55;;;;;;;22.24;67.55;99295.69;4968541;28;20051;-72
2021/08/11 04:56:36;;;;;;;;;;;;;;;22.29;67.42;99288.22;4959347;28;20039;-74
2021/08/11 04:59:03;;;;;;;56.13;15.77;;;;;;;22.32;67.60;99284.69;4956443;28;19932;-73
2021/08/11 05:01:29;;;;;;;47.63;15.23;;;;;;;22.34;67.81;99288.72;4956576;28;20051;-72
2021/08/11 05:03:55;;;;;;;49.88;15.35;;;;;;;22.37;67.48;99284.41;4947232;28;20051;-73
2021/08/11 05:06:22;;;;;;;;;;;;;;;22.42;67.49;99283.31;4960529;28;20060;-72
2021/08/11 05:08:48;;;;;;;61.70;16.33;;;;;;;22.44;67.55;99278.19;4961395;28;20033;-72
2021/08/11 05:11:16;;;;;;;48.80;15.80;;;;;;;22.46;67.45;99281.41;4960618;28;20047;-72
2021/08/11 05:13:42;;;;;;;52.38;16.40;;;;;;;22.49;68.06;99286.25;4956810;28;20417;-73
2021/08/11 05:16:08;;;;;;;55.58;17.80;;;;;;;22.46;68.58;99289.75;4953199;28;20063;-74
2021/08/11 05:18:34;;;;;;;43.92;17.73;;;;;;;22.45;68.73;99280.59;4946036;28;20047;-72
2021/08/11 05:21:00;;;;;;;45.05;16.85;;;;;;;22.47;69.00;99275.47;4934813;29;20051;-73
2021/08/11 05:23:27;;;;;;;41.30;15.73;;;;;;;22.55;68.93;99268.06;4919097;29;20728;-74
2021/08/11 05:25:52;;;;;;;;;;;;;;;22.64;68.71;99265.84;4945295;29;20051;-74
2021/08/11 05:28:20;;;;;;;36.73;13.90;;;;;;;22.65;68.73;99256.31;4948011;28;20430;-73
2021/08/11 05:30:46;;;;;;;22.52;9.07;;;;;;;22.83;69.02;99260.63;4947257;29;20051;-74
2021/08/11 05:33:12;;;;;;;28.05;12.38;;;;;;;22.95;69.01;99257.66;4952379;28;20098;-74
2021/08/11 05:35:38;;;;;;;32.63;13.52;;;;;;;22.95;69.04;99260.44;4954245;28;20047;-74
2021/08/11 05:38:07;;;;;;;33.03;13.63;;;;;;;22.89;68.91;99247.97;4946467;28;20141;-74
2021/08/11 05:40:35;;;;;;;36.90;13.23;;;;;;;22.95;68.36;99252.06;4935260;28;20158;-75
2021/08/11 05:43:01;;;;;;;31.73;13.38;;;;;;;22.98;68.69;99256.09;4947863;28;20089;-73
2021/08/11 05:45:29;;;;;;;27.73;12.20;;;;;;;23.02;68.37;99251.38;4970741;28;20059;-73
2021/08/11 05:47:54;;;;;;;;;;;;;;;23.03;67.97;99245.44;4953373;28;20051;-74
2021/08/11 05:50:21;;;;;;;31.70;12.00;;;;;;;23.07;67.99;99259.44;4952646;28;20339;-75
2021/08/11 05:52:48;;;;;;;28.50;11.77;;;;;;;23.05;67.81;99253.44;4953966;28;20391;-74
2021/08/11 05:55:14;;;;;;;26.73;11.95;;;;;;;23.04;67.60;99249.81;4970816;28;20572;-74
2021/08/11 05:57:40;;;;;;;28.80;10.60;;;;;;;23.11;67.27;99239.97;4955756;28;20493;-74
2021/08/11 06:00:09;;;;;;;18.70;7.60;;;;;;;23.27;67.75;99243.47;4959760;28;20042;-73
2021/08/11 06:02:38;;;;;;;25.15;10.07;;;;;;;23.40;67.77;99232.88;4949637;28;20077;-74
2021/08/11 06:05:15;;;;;;;25.50;11.43;;;;;;;23.42;67.24;99247.25;4960325;28;20062;-74
2021/08/11 06:07:42;;;;;;;29.23;12.02;;;;;;;23.34;67.04;99239.97;4964288;28;20228;-74
2021/08/11 06:10:09;;;;;;;21.58;11.30;;;;;;;23.28;66.89;99244.25;4936961;28;20044;-74
2021/08/11 06:12:35;;;;;;;22.58;11.57;;;;;;;23.19;66.96;99241.69;4934348;28;20045;-74
2021/08/11 06:15:01;;;;;;;26.50;11.67;;;;;;;23.16;66.85;99246.03;4962928;28;20508;-74
2021/08/11 06:17:28;;;;;;;22.48;11.75;;;;;;;23.18;66.83;99240.91;4960012;28;20416;-74
2021/08/11 06:19:56;;;;;;;22.98;11.45;;;;;;;23.21;66.63;99245.72;4921122;28;20071;-74
2021/08/11 06:22:23;;;;;;;24.13;11.15;;;;;;;23.23;66.67;99239.75;4969173;28;20154;-74
2021/08/11 06:24:49;;;;;;;23.67;11.10;;;;;;;23.25;66.49;99242.97;4959759;28;20586;-74
2021/08/11 06:27:15;;;;;;;23.58;11.57;;;;;;;23.14;66.62;99244.81;4969768;28;20043;-74
2021/08/11 06:29:41;;;;;;;19.80;10.70;;;;;;;23.17;66.46;99242.06;4947013;28;20094;-75
2021/08/11 06:32:07;;;;;;;28.35;10.65;;;;;;;23.18;66.20;99242.88;4921665;28;20048;-75
2021/08/11 06:34:33;;;;;;;26.37;12.53;;;;;;;23.13;66.50;99238.41;4966535;28;20070;-75
2021/08/11 06:37:03;;;;;;;24.50;12.70;;;;;;;23.06;67.30;99241.09;4969716;28;20073;-74
2021/08/11 06:39:30;;;;;;;25.75;12.40;;;;;;;22.99;67.54;99247.34;4964692;28;20225;-73
2021/08/11 06:41:56;;;;;;;24.10;12.07;;;;;;;23.02;67.24;99241.03;4952117;28;20056;-74
2021/08/11 06:44:30;;;;;;;27.38;12.10;;;;;;;23.12;67.25;99247.97;4951059;28;20120;-74
2021/08/11 06:46:56;;;;;;;33.33;12.60;;;;;;;23.17;66.86;99258.00;4946905;28;20098;-75
2021/08/11 06:49:23;;;;;;;36.28;13.07;;;;;;;23.13;67.40;99240.41;4941173;29;20099;-75
2021/08/11 06:51:49;;;;;;;36.15;13.70;;;;;;;23.12;67.79;99239.59;4944762;28;20390;-75
2021/08/11 06:54:16;;;;;;;33.50;13.30;;;;;;;23.11;67.90;99235.19;4945542;29;20044;-72
2021/08/11 06:56:43;;;;;;;28.70;13.02;;;;;;;23.13;67.88;99252.34;4958001;29;20078;-72
2021/08/11 06:59:09;;;;;;;23.63;12.35;;;;;;;23.06;67.87;99244.69;4944330;29;20457;-67
2021/08/11 07:01:39;;;;;;;23.00;12.07;;;;;;;23.04;67.91;99252.59;4944501;28;20050;-69
2021/08/11 07:04:33;;;;;;;29.58;12.15;;;;;;;22.98;68.08;99251.31;4933539;29;20047;-68
2021/08/11 07:07:20;;;;;;;23.23;12.90;;;;;;;22.89;68.08;99231.25;4877801;29;20052;-69
2021/08/11 07:09:53;;;;;;;25.52;12.75;;;;;;;22.94;68.27;99234.53;4945442;29;20079;-68
2021/08/11 07:12:20;;;;;;;22.55;12.25;;;;;;;23.00;68.08;99243.38;4957631;29;20047;-69
2021/08/11 07:14:49;;;;;;;24.20;12.80;;;;;;;23.00;67.65;99239.78;4945146;29;20503;-68
2021/08/11 07:17:18;;;;;;;20.92;11.05;;;;;;;22.89;67.59;99240.44;4953170;28;20106;-68
2021/08/11 07:19:44;;;;;;;24.98;12.55;;;;;;;22.84;67.54;99228.78;4944736;28;20504;-69
2021/08/11 07:22:10;;;;;;;23.13;11.63;;;;;;;22.91;67.72;99249.22;4918971;29;20048;-69
2021/08/11 07:24:39;;;;;;;21.73;11.00;;;;;;;22.94;67.22;99242.91;4953541;28;20051;-71
2021/08/11 07:27:22;;;;;;;20.73;11.45;;;;;;;22.95;67.43;99250.06;4961645;29;20076;-70
2021/08/11 07:29:49;;;;;;;22.02;11.25;;;;;;;22.94;67.49;99251.25;4955172;28;20553;-70
2021/08/11 07:32:15;;;;;;;24.25;11.45;;;;;;;22.98;67.40;99250.50;4942993;28;20050;-68
2021/08/11 07:34:41;;;;;;;22.13;11.60;;;;;;;23.00;67.56;99243.38;4938646;29;20047;-68
2021/08/11 07:37:07;;;;;;;21.23;11.30;;;;;;;22.98;67.36;99248.53;4939696;29;20530;-69
2021/08/11 07:39:33;;;;;;;25.08;12.23;;;;;;;22.97;67.44;99249.72;4939454;29;20059;-69
2021/08/11 07:42:07;;;;;;;24.77;11.07;;;;;;;23.03;67.13;99244.63;4955876;28;20047;-69
2021/08/11 07:44:35;;;;;;;23.50;12.57;;;;;;;23.10;67.27;99241.94;4937847;29;20044;-68
2021/08/11 07:47:01;;;;;;;25.40;12.27;;;;;;;23.12;67.04;99239.59;4941730;28;20599;-67
2021/08/11 07:49:27;;;;;;;21.07;12.60;;;;;;;23.14;67.29;99237.22;4940326;29;20056;-73
2021/08/11 07:51:53;;;;;;;25.17;11.87;;;;;;;23.22;67.09;99244.53;4937225;29;20635;-74
2021/08/11 07:54:19;;;;;;;20.42;11.70;;;;;;;23.32;67.20;99240.34;4953070;28;20154;-72
2021/08/11 07:56:45;;;;;;;21.30;11.88;;;;;;;23.28;66.99;99231.13;4950658;28;20098;-73
2021/08/11 07:59:11;;;;;;;24.33;11.27;;;;;;;23.29;66.60;99238.31;4942136;29;20076;-74
2021/08/11 08:01:39;;;;;;;24.35;11.25;;;;;;;23.18;66.27;99228.94;4930197;29;20111;-74
2021/08/11 08:04:05;;;;;;;20.45;10.95;;;;;;;23.24;66.32;99221.84;4923429;29;20131;-72
2021/08/11 08:06:40;;;;;;;19.90;11.52;;;;;;;23.37;66.62;99239.22;4935713;29;20508;-74
2021/08/11 08:09:09;;;;;;;26.33;12.63;;;;;;;23.34;66.83;99235.19;4950279;29;20095;-72
2021/08/11 08:11:35;;;;;;;24.92;12.45;;;;;;;23.35;66.95;99231.22;4940118;28;20043;-69
2021/08/11 08:14:01;;;;;;;24.00;12.40;;;;;;;23.35;66.78;99231.22;4953312;28;20051;-72
2021/08/11 08:16:27;;;;;;;22.45;11.57;;;;;;;23.42;66.78;99232.53;4950870;28;20049;-71
2021/08/11 08:18:54;;;;;;;25.27;11.52;;;;;;;23.42;66.82;99229.72;4947470;28;20492;-70
2021/08/11 08:21:20;;;;;;;19.80;11.95;;;;;;;23.43;66.58;99229.34;4935925;29;20044;-72
2021/08/11 08:23:46;;;;;;;29.83;12.73;;;;;;;23.49;66.36;99216.69;4943351;29;20052;-70
2021/08/11 08:26:12;;;;;;;28.75;12.70;;;;;;;23.57;66.62;99222.34;4940751;29;20056;-70
2021/08/11 08:28:39;;;;;;;24.87;12.57;;;;;;;23.57;66.84;99213.97;4934345;29;20048;-70
2021/08/11 08:31:05;;;;;;;22.23;13.23;;;;;;;23.59;66.61;99223.59;4944960;29;20055;-70
2021/08/11 08:33:31;;;;;;;22.15;12.27;;;;;;;23.61;66.97;99215.66;4938606;28;20483;-71
2021/08/11 08:35:58;;;;;;;35.43;14.47;;;;;;;23.58;66.70;99224.78;4935863;29;20516;-70
2021/08/11 08:38:24;;;;;;;24.85;13.55;;;;;;;23.56;66.78;99212.38;4939415;29;20308;-70
2021/08/11 08:40:51;;;;;;;23.60;14.05;;;;;;;23.60;66.94;99216.84;4942390;29;20044;-80
2021/08/11 08:43:17;;;;;;;26.80;13.07;;;;;;;23.65;66.35;99215.72;4942154;29;20051;-80
2021/08/11 08:45:48;;;;;;;;;;;;;;;23.74;66.25;99216.22;4938121;28;20078;-80
2021/08/11 08:48:14;;;;;;;23.40;14.20;;;;;;;23.75;66.54;99214.22;4944912;28;19934;-79
2021/08/11 08:50:41;;;;;;;23.08;14.18;;;;;;;23.74;66.50;99218.22;4930711;28;20047;-80
2021/08/11 08:53:09;;;;;;;28.00;15.45;;;;;;;23.76;66.42;99213.06;4956109;28;20059;-80
2021/08/11 08:55:36;;;;;;;30.23;14.77;;;;;;;23.77;66.29;99206.28;4963707;28;20043;-80
2021/08/11 08:58:03;;;;;;;34.08;16.52;;;;;;;23.77;66.30;99201.50;4949971;28;20407;-83
2021/08/11 09:00:30;;;;;;;30.50;16.58;;;;;;;23.80;65.85;99199.94;4955413;28;20059;-82
2021/08/11 09:02:56;;;;;;;;;;;;;;;23.81;66.09;99206.34;4943791;28;20087;-82
2021/08/11 09:05:22;;;;;;;25.20;15.63;;;;;;;23.81;65.98;99207.13;4935211;28;19990;-72
2021/08/11 09:07:49;;;;;;;25.58;15.70;;;;;;;23.83;65.86;99203.97;4951689;28;20526;-79
2021/08/11 09:10:21;;;;;;;27.17;14.00;;;;;;;23.69;65.49;99190.63;4938852;28;20051;-79
2021/08/11 09:12:54;;;;;;;27.55;13.00;;;;;;;23.70;65.59;99197.81;4949332;28;20054;-77
2021/08/11 09:15:50;;;;;;;26.73;12.73;;;;;;;23.39;65.52;99149.59;4919000;28;20130;-80
2021/08/11 09:18:38;;;;;;;22.70;10.90;;;;;;;23.48;65.68;99155.69;4935172;28;20427;-80
2021/08/11 09:21:11;;;;;;;18.73;9.77;;;;;;;23.60;65.26;99160.22;4941993;28;20054;-77
2021/08/11 09:23:54;;;;;;;18.20;8.50;;;;;;;23.84;65.43;99183.25;4934548;28;20074;-79
2021/08/11 09:26:40;;;;;;;17.55;8.95;;;;;;;24.06;65.20;99201.88;4927137;28;20133;-79
2021/08/11 09:29:06;;;;;;;23.02;11.95;;;;;;;23.93;65.10;99181.75;4964821;28;20056;-77
2021/08/11 09:31:38;;;;;;;23.67;12.18;;;;;;;23.89;65.21;99163.38;4918890;29;20146;-77
2021/08/11 09:34:11;;;;;;;20.67;10.48;;;;;;;24.02;65.19;99195.44;4937287;29;20527;-80
2021/08/11 09:36:51;;;;;;;21.67;10.88;;;;;;;23.76;65.04;99140.50;4951448;29;20106;-80
2021/08/11 09:39:29;;;;;;;20.75;10.65;;;;;;;23.85;64.74;99148.56;4920950;29;20198;-76
2021/08/11 09:42:06;;;;;;;17.80;9.63;;;;;;;24.14;65.08;99177.63;4932360;29;20508;-77
2021/08/11 09:44:36;;;;;;;19.50;10.38;;;;;;;24.06;64.54;99170.38;4933180;29;20079;-76
2021/08/11 09:47:17;;;;;;;21.15;12.07;;;;;;;24.07;64.71;99185.94;4920020;29;20397;-84
2021/08/11 09:50:01;;;;;;;23.52;13.60;;;;;;;23.74;65.14;99168.78;4937023;29;20078;-79
2021/08/11 09:52:51;;;;;;;27.50;13.77;;;;;;;23.58;65.73;99160.63;4954760;28;20058;-79
2021/08/11 09:55:21;;;;;;;21.45;11.98;;;;;;;23.99;65.29;99217.69;4932660;29;20044;-76
2021/08/11 09:57:56;;;;;;;25.90;12.65;;;;;;;23.97;65.26;99220.91;4916485;29;20142;-78
2021/08/11 10:00:46;;;;;;;25.42;12.77;;;;;;;23.74;65.29;99196.66;4927745;29;20530;-77
2021/08/11 10:03:12;;;;;;;27.70;11.90;;;;;;;23.71;65.00;99210.56;4935214;29;20325;-77
2021/08/11 10:05:40;;;;;;;26.57;11.80;;;;;;;23.47;65.66;99185.56;4946995;29;20047;-79
2021/08/11 10:08:36;;;;;;;24.48;10.73;;;;;;;23.79;65.23;99221.44;4928458;29;20067;-77
2021/08/11 10:11:03;;;;;;;18.60;11.38;;;;;;;23.65;65.23;99202.53;4928328;29;20435;-78
2021/08/11 10:13:39;;;;;;;23.98;11.63;;;;;;;23.78;65.31;99224.63;4925869;29;20063;-73
2021/08/11 10:16:06;;;;;;;25.05;11.60;;;;;;;23.73;65.35;99217.38;4943457;28;20055;-72
2021/08/11 10:18:39;;;;;;;24.27;12.00;;;;;;;23.67;65.91;99218.91;4933885;28;20496;-72
2021/08/11 10:21:07;;;;;;;22.02;12.45;;;;;;;23.54;66.06;99209.16;4936810;28;20042;-73
2021/08/11 10:23:33;;;;;;;21.15;11.45;;;;;;;23.43;65.99;99217.38;4938206;28;20516;-72
2021/08/11 10:26:01;;;;;;;23.10;11.83;;;;;;;23.47;65.94;99224.59;4943006;28;20444;-73
2021/08/11 10:28:27;;;;;;;21.77;11.65;;;;;;;23.46;66.02;99222.22;4934256;29;20083;-72
2021/08/11 10:30:55;;;;;;;25.73;13.13;;;;;;;23.41;66.31;99226.13;4937543;28;20143;-72
2021/08/11 10:33:21;;;;;;;21.45;10.98;;;;;;;23.39;66.46;99222.91;4918124;29;20099;-73
2021/08/11 10:35:49;;;;;;;25.10;11.90;;;;;;;23.39;66.65;99217.34;4940071;28;20059;-71
2021/08/11 10:38:15;;;;;;;24.77;11.60;;;;;;;23.25;67.07;99215.09;4944899;28;20051;-73
2021/08/11 10:40:48;;;;;;;21.08;12.07;;;;;;;23.27;67.41;99218.34;4956509;28;20075;-73
2021/08/11 10:43:14;;;;;;;24.38;12.88;;;;;;;23.24;67.23;99219.06;4962069;28;20504;-72
2021/08/11 10:45:44;;;;;;;23.52;11.85;;;;;;;23.16;67.25;99209.00;4927998;28;20150;-73
2021/08/11 10:48:16;;;;;;;28.35;12.75;;;;;;;23.18;67.33;99215.81;4935634;28;20055;-73
2021/08/11 10:50:43;;;;;;;23.08;11.63;;;;;;;23.12;67.34;99208.13;4950737;28;20066;-73
2021/08/11 10:53:09;;;;;;;;;;;;;;;23.16;67.53;99214.56;4971176;28;20301;-73
2021/08/11 10:55:44;;;;;;;22.47;11.40;;;;;;;23.10;67.60;99202.94;4936750;29;20318;-73
2021/08/11 10:58:35;;;;;;;21.35;11.02;;;;;;;23.09;67.48;99202.09;4947862;29;20094;-77
2021/08/11 11:01:02;;;;;;;27.52;12.13;;;;;;;23.06;67.87;99199.28;4921611;29;20059;-75
2021/08/11 11:03:55;;;;;;;21.00;11.43;;;;;;;23.10;67.51;99197.34;4950734;29;20091;-74
2021/08/11 11:06:22;;;;;;;19.92;10.65;;;;;;;22.94;67.58;99167.66;4931036;29;20051;-73
2021/08/11 11:08:49;;;;;;;;;;;;;;;23.16;67.66;99195.84;4921649;29;20158;-74
2021/08/11 11:11:34;;;;;;;20.27;10.97;;;;;;;23.16;67.36;99193.06;4954168;28;20041;-72
2021/08/11 11:14:01;;;;;;;22.58;10.07;;;;;;;23.28;67.08;99189.28;4938887;29;20527;-74
2021/08/11 11:17:02;;;;;;;15.65;7.63;;;;;;;23.33;66.77;99175.00;4948529;28;20055;-73
2021/08/11 11:19:31;;;;;;;15.07;7.90;;;;;;;23.49;66.62;99172.06;4921958;29;20052;-73
2021/08/11 11:21:57;;;;;;;20.08;9.98;;;;;;;23.59;66.63;99161.41;4949470;28;20055;-73
2021/08/11 11:24:51;;;;;;;20.30;10.68;;;;;;;23.74;66.38;99159.63;4957858;28;20069;-73
2021/08/11 11:28:01;;;;;;;16.27;9.80;;;;;;;23.85;65.93;99154.16;4939762;29;20044;-73
2021/08/11 11:30:37;;;;;;;20.83;10.05;;;;;;;23.88;65.57;99143.03;4954747;28;20055;-74